createdAt,value
2022-07-29T00:00:17.336Z,98559.28
2022-07-29T00:02:44.714Z,98562.84
2022-07-29T00:05:16.054Z,98558.75
2022-07-29T00:07:43.267Z,98546.75
2022-07-29T00:10:10.554Z,98545.53
2022-07-29T00:12:38.602Z,98546.03
2022-07-29T00:15:06.953Z,98545.94
2022-07-29T00:17:35.593Z,98547.56
2022-07-29T00:20:02.901Z,98544.09
2022-07-29T00:22:31.052Z,98549.78
2022-07-29T00:24:58.253Z,98543.28
2022-07-29T00:27:25.576Z,98539.94
2022-07-29T00:29:53.405Z,98539.53
2022-07-29T00:32:21.061Z,98535.06
2022-07-29T00:35:07.643Z,98541.16
2022-07-29T00:37:34.642Z,98538.94
2022-07-29T00:40:02.023Z,98545.13
2022-07-29T00:42:29.480Z,98549.62
2022-07-29T00:44:57.104Z,98556.53
2022-07-29T00:47:24.302Z,98543.88
2022-07-29T00:49:51.489Z,98544.87
2022-07-29T00:52:21.357Z,98543.66
2022-07-29T00:54:49.067Z,98540.81
2022-07-29T00:57:16.113Z,98539.69
2022-07-29T00:59:43.267Z,98538.28
2022-07-29T01:02:11.547Z,98542.22
2022-07-29T01:04:38.768Z,98543.41
2022-07-29T01:07:07.471Z,98536.00
2022-07-29T01:09:46.251Z,98532.03
2022-07-29T01:12:18.927Z,98533.09
2022-07-29T01:14:48.412Z,98531.63
2022-07-29T01:17:34.218Z,98537.94
2022-07-29T01:20:34.355Z,98537.37
2022-07-29T01:23:04.522Z,98531.66
2022-07-29T01:25:31.559Z,98531.19
2022-07-29T01:28:27.289Z,98533.16
2022-07-29T01:30:56.342Z,98529.44
2022-07-29T01:33:46.910Z,98530.75
2022-07-29T01:36:20.198Z,98529.13
2022-07-29T01:39:09.230Z,98530.66
2022-07-29T01:41:40.277Z,98538.47
2022-07-29T01:44:21.418Z,98538.81
2022-07-29T01:46:55.566Z,98531.22
2022-07-29T01:49:30.501Z,98530.16
2022-07-29T01:52:06.838Z,98520.91
2022-07-29T01:54:40.016Z,98526.41
2022-07-29T01:57:12.852Z,98522.63
2022-07-29T01:59:42.889Z,98519.88
2022-07-29T02:02:14.525Z,98526.66
2022-07-29T02:04:44.088Z,98525.41
2022-07-29T02:07:15.433Z,98528.41
2022-07-29T02:09:43.616Z,98520.38
2022-07-29T02:12:12.182Z,98518.16
2022-07-29T02:14:46.043Z,98523.25
2022-07-29T02:17:14.788Z,98523.88
2022-07-29T02:19:45.579Z,98525.00
2022-07-29T02:22:13.850Z,98525.00
2022-07-29T02:24:43.098Z,98523.78
2022-07-29T02:27:12.174Z,98525.00
2022-07-29T02:29:41.257Z,98530.41
2022-07-29T02:32:11.780Z,98529.50
2022-07-29T02:34:41.308Z,98532.63
2022-07-29T02:37:11.771Z,98529.06
2022-07-29T02:39:42.301Z,98523.28
2022-07-29T02:42:13.822Z,98521.03
2022-07-29T02:44:41.570Z,98524.81
2022-07-29T02:47:26.641Z,98520.44
2022-07-29T02:50:21.951Z,98518.50
2022-07-29T02:52:56.527Z,98521.03
2022-07-29T02:55:37.088Z,98520.84
2022-07-29T02:58:29.571Z,98520.22
2022-07-29T03:01:04.788Z,98522.97
2022-07-29T03:03:39.338Z,98514.06
2022-07-29T03:06:08.947Z,98527.00
2022-07-29T03:08:59.127Z,98519.59
2022-07-29T03:11:42.509Z,98522.44
2022-07-29T03:14:15.262Z,98520.63
2022-07-29T03:16:43.844Z,98520.75
2022-07-29T03:19:11.295Z,98520.63
2022-07-29T03:21:38.623Z,98518.75
2022-07-29T03:24:10.243Z,98513.91
2022-07-29T03:26:38.620Z,98518.50
2022-07-29T03:29:05.995Z,98518.81
2022-07-29T03:31:34.065Z,98517.06
2022-07-29T03:34:01.687Z,98518.91
2022-07-29T03:36:28.751Z,98517.41
2022-07-29T03:38:56.970Z,98517.81
2022-07-29T03:41:26.063Z,98514.97
2022-07-29T03:43:55.126Z,98516.88
2022-07-29T03:46:25.304Z,98517.50
2022-07-29T03:48:59.772Z,98523.22
2022-07-29T03:51:33.992Z,98522.31
2022-07-29T03:54:09.488Z,98523.09
2022-07-29T03:56:40.977Z,98525.97
2022-07-29T03:59:10.165Z,98528.63
2022-07-29T04:01:42.812Z,98529.87
2022-07-29T04:04:10.976Z,98531.19
2022-07-29T04:06:45.876Z,98525.97
2022-07-29T04:09:16.435Z,98523.88
2022-07-29T04:11:57.152Z,98525.47
2022-07-29T04:14:31.053Z,98524.03
2022-07-29T04:16:58.064Z,98528.00
2022-07-29T04:19:25.216Z,98523.25
2022-07-29T04:21:52.756Z,98526.19
2022-07-29T04:24:20.089Z,98524.06
2022-07-29T04:26:48.837Z,98528.13
2022-07-29T04:29:16.060Z,98526.62
2022-07-29T04:31:44.266Z,98536.00
2022-07-29T04:34:12.222Z,98528.78
2022-07-29T04:36:39.349Z,98527.72
2022-07-29T04:39:06.594Z,98528.59
2022-07-29T04:41:33.865Z,98530.56
2022-07-29T04:44:06.843Z,98532.56
2022-07-29T04:46:35.948Z,98532.28
2022-07-29T04:49:04.445Z,98536.38
2022-07-29T04:51:31.830Z,98530.69
2022-07-29T04:53:59.031Z,98539.94
2022-07-29T04:56:26.167Z,98530.94
2022-07-29T04:58:53.372Z,98533.25
2022-07-29T05:01:21.608Z,98540.13
2022-07-29T05:03:49.293Z,98540.56
2022-07-29T05:06:16.357Z,98543.69
2022-07-29T05:08:43.405Z,98539.94
2022-07-29T05:11:13.055Z,98548.41
2022-07-29T05:13:45.422Z,98547.44
2022-07-29T05:16:14.435Z,98546.81
2022-07-29T05:18:42.235Z,98551.66
2022-07-29T05:21:09.369Z,98558.59
2022-07-29T05:23:36.748Z,98557.75
2022-07-29T05:26:04.145Z,98547.84
2022-07-29T05:28:35.511Z,98548.75
2022-07-29T05:31:02.991Z,98550.53
2022-07-29T05:33:35.323Z,98551.34
2022-07-29T05:36:08.458Z,98555.31
2022-07-29T05:38:37.264Z,98555.16
2022-07-29T05:41:05.312Z,98559.59
2022-07-29T05:43:33.235Z,98555.47
2022-07-29T05:46:00.401Z,98558.47
2022-07-29T05:48:27.730Z,98559.91
2022-07-29T05:50:55.850Z,98560.75
2022-07-29T05:53:23.315Z,98559.66
2022-07-29T05:55:50.868Z,98560.53
2022-07-29T05:58:18.046Z,98557.25
2022-07-29T06:00:45.240Z,98559.28
2022-07-29T06:03:12.508Z,98563.16
2022-07-29T06:05:39.629Z,98565.00
2022-07-29T06:08:08.340Z,98561.69
2022-07-29T06:10:39.712Z,98559.34
2022-07-29T06:13:06.730Z,98551.00
2022-07-29T06:15:34.709Z,98554.69
2022-07-29T06:18:02.565Z,98558.19
2022-07-29T06:20:31.606Z,98553.97
2022-07-29T06:22:59.672Z,98562.13
2022-07-29T06:25:27.254Z,98560.16
2022-07-29T06:27:54.359Z,98572.88
2022-07-29T06:30:21.899Z,98576.31
2022-07-29T06:32:49.342Z,98570.94
2022-07-29T06:38:09.605Z,98569.03
2022-07-29T06:41:05.217Z,98572.12
2022-07-29T06:43:35.363Z,98577.00
2022-07-29T06:46:20.180Z,98572.12
2022-07-29T06:48:48.853Z,98567.41
2022-07-29T06:51:16.419Z,98571.78
2022-07-29T06:54:00.607Z,98573.16
2022-07-29T06:56:39.939Z,98565.03
2022-07-29T06:59:11.263Z,98571.69
2022-07-29T07:01:43.270Z,98569.63
2022-07-29T07:04:12.055Z,98574.19
2022-07-29T07:06:39.413Z,98573.91
2022-07-29T07:09:07.079Z,98571.47
2022-07-29T07:11:34.163Z,98574.47
2022-07-29T07:14:03.831Z,98573.53
2022-07-29T07:16:32.364Z,98565.22
2022-07-29T07:19:01.740Z,98572.41
2022-07-29T07:21:30.471Z,98568.25
2022-07-29T07:23:58.415Z,98573.84
2022-07-29T07:26:26.464Z,98573.97
2022-07-29T07:28:53.460Z,98575.31
2022-07-29T07:31:21.729Z,98569.91
2022-07-29T07:33:48.924Z,98578.03
2022-07-29T07:36:16.037Z,98566.78
2022-07-29T07:38:43.204Z,98576.97
2022-07-29T07:41:10.354Z,98576.84
2022-07-29T07:43:38.006Z,98568.19
2022-07-29T07:46:05.800Z,98562.50
2022-07-29T07:48:32.925Z,98570.72
2022-07-29T07:50:59.902Z,98573.53
2022-07-29T07:53:26.939Z,98568.16
2022-07-29T07:56:11.844Z,98577.44
2022-07-29T07:58:39.931Z,98568.91
2022-07-29T08:01:07.487Z,98576.81
2022-07-29T08:03:34.689Z,98576.47
2022-07-29T08:06:01.965Z,98581.03
2022-07-29T08:08:29.225Z,98576.03
2022-07-29T08:11:02.180Z,98587.47
2022-07-29T08:13:33.339Z,98579.78
2022-07-29T08:16:02.761Z,98585.59
2022-07-29T08:18:31.928Z,98580.12
2022-07-29T08:20:59.719Z,98581.59
2022-07-29T08:23:32.850Z,98577.84
2022-07-29T08:26:15.419Z,98585.59
2022-07-29T08:28:46.966Z,98583.06
2022-07-29T08:31:14.944Z,98583.16
2022-07-29T08:33:43.107Z,98575.44
2022-07-29T08:36:11.377Z,98583.56
2022-07-29T08:38:39.540Z,98580.66
2022-07-29T08:41:07.315Z,98572.38
2022-07-29T08:43:36.235Z,98576.19
2022-07-29T08:46:03.579Z,98578.19
2022-07-29T08:48:30.958Z,98579.75
2022-07-29T08:50:59.005Z,98582.00
2022-07-29T08:53:28.393Z,98573.59
2022-07-29T08:55:56.069Z,98580.44
2022-07-29T08:58:25.473Z,98577.22
2022-07-29T09:00:55.754Z,98572.94
2022-07-29T09:03:31.004Z,98578.03
2022-07-29T09:06:02.599Z,98579.31
2022-07-29T09:08:32.059Z,98580.25
2022-07-29T09:11:01.268Z,98579.88
2022-07-29T09:13:31.183Z,98571.44
2022-07-29T09:16:00.014Z,98572.38
2022-07-29T09:18:42.852Z,98575.94
2022-07-29T09:21:35.879Z,98567.94
2022-07-29T09:24:04.750Z,98568.94
2022-07-29T09:26:33.482Z,98561.31
2022-07-29T09:29:00.890Z,98565.44
2022-07-29T09:31:38.417Z,98565.44
2022-07-29T09:34:07.541Z,98561.16
2022-07-29T09:36:45.867Z,98558.78
2022-07-29T09:39:14.589Z,98549.59
2022-07-29T09:41:46.893Z,98557.22
2022-07-29T09:44:14.326Z,98550.84
2022-07-29T09:46:43.140Z,98552.84
2022-07-29T09:49:12.573Z,98544.41
2022-07-29T09:51:40.591Z,98543.63
2022-07-29T09:54:27.903Z,98544.00
2022-07-29T09:56:56.643Z,98540.81
2022-07-29T09:59:27.903Z,98540.41
2022-07-29T10:01:55.451Z,98531.88
2022-07-29T10:04:22.911Z,98547.63
2022-07-29T10:07:05.223Z,98537.97
2022-07-29T10:09:33.989Z,98538.37
2022-07-29T10:12:18.737Z,98528.69
2022-07-29T10:14:46.020Z,98531.03
2022-07-29T10:17:13.066Z,98534.69
2022-07-29T10:19:40.256Z,98538.34
2022-07-29T10:22:12.416Z,98526.25
2022-07-29T10:24:41.512Z,98532.56
2022-07-29T10:27:10.264Z,98525.94
2022-07-29T10:29:37.492Z,98529.13
2022-07-29T10:32:10.647Z,98524.91
2022-07-29T10:34:55.841Z,98525.16
2022-07-29T10:37:55.135Z,98524.53
2022-07-29T10:40:59.962Z,98523.88
2022-07-29T10:43:32.009Z,98524.66
2022-07-29T10:46:00.908Z,98530.75
2022-07-29T10:48:28.067Z,98517.09
2022-07-29T10:51:06.995Z,98521.09
2022-07-29T10:53:51.693Z,98519.44
2022-07-29T10:56:27.169Z,98516.69
2022-07-29T10:59:22.816Z,98516.22
2022-07-29T11:01:53.537Z,98503.31
2022-07-29T11:04:46.881Z,98505.47
2022-07-29T11:07:15.651Z,98501.00
2022-07-29T11:09:46.573Z,98499.22
2022-07-29T11:12:38.745Z,98498.44
2022-07-29T11:15:18.485Z,98498.50
2022-07-29T11:18:03.304Z,98495.56
2022-07-29T11:20:49.865Z,98491.97
2022-07-29T11:23:19.591Z,98493.88
2022-07-29T11:26:13.561Z,98489.19
2022-07-29T11:28:44.525Z,98477.97
2022-07-29T11:31:12.444Z,98474.75
2022-07-29T11:33:55.861Z,98468.37
2022-07-29T11:36:27.920Z,98475.44
2022-07-29T11:39:36.419Z,98473.81
2022-07-29T11:42:32.087Z,98473.03
2022-07-29T11:45:41.477Z,98473.22
2022-07-29T11:48:05.359Z,98468.06
2022-07-29T11:50:46.017Z,98469.22
2022-07-29T11:53:16.280Z,98465.62
2022-07-29T11:55:50.865Z,98463.63
2022-07-29T11:58:26.447Z,98456.84
2022-07-29T12:01:04.668Z,98456.44
2022-07-29T12:03:36.072Z,98452.84
2022-07-29T12:06:15.145Z,98457.62
2022-07-29T12:08:44.291Z,98456.38
2022-07-29T12:11:20.908Z,98455.13
2022-07-29T12:13:50.161Z,98453.87
2022-07-29T12:16:26.068Z,98458.28
2022-07-29T12:19:02.000Z,98458.16
2022-07-29T12:21:30.963Z,98455.84
2022-07-29T12:24:04.782Z,98449.44
2022-07-29T12:26:34.336Z,98447.31
2022-07-29T12:29:03.459Z,98442.91
2022-07-29T12:31:41.847Z,98439.81
2022-07-29T12:34:16.293Z,98443.41
2022-07-29T12:36:44.153Z,98442.69
2022-07-29T12:39:12.494Z,98447.44
2022-07-29T12:41:40.161Z,98443.84
2022-07-29T12:44:07.051Z,98437.47
2022-07-29T12:46:34.088Z,98436.66
2022-07-29T12:49:01.178Z,98439.44
2022-07-29T12:51:40.439Z,98436.06
2022-07-29T12:54:12.670Z,98436.47
2022-07-29T12:56:44.333Z,98432.78
2022-07-29T12:59:21.925Z,98436.56
2022-07-29T13:01:53.333Z,98437.19
2022-07-29T13:04:55.769Z,98439.66
2022-07-29T13:07:54.951Z,98437.94
2022-07-29T13:10:24.396Z,98438.31
2022-07-29T13:13:10.588Z,98434.28
2022-07-29T13:15:43.670Z,98430.53
2022-07-29T13:18:29.310Z,98428.19
2022-07-29T13:20:57.295Z,98422.69
2022-07-29T13:23:24.401Z,98421.63
2022-07-29T13:25:51.377Z,98428.84
2022-07-29T13:28:18.574Z,98421.47
2022-07-29T13:30:45.580Z,98422.00
2022-07-29T13:33:12.842Z,98417.63
2022-07-29T13:35:39.913Z,98420.47
2022-07-29T13:38:07.130Z,98414.88
2022-07-29T13:40:36.417Z,98420.19
2022-07-29T13:43:03.532Z,98413.41
2022-07-29T13:45:30.898Z,98415.78
2022-07-29T13:47:57.787Z,98406.97
2022-07-29T13:50:24.775Z,98419.38
2022-07-29T13:52:52.273Z,98414.56
2022-07-29T13:55:19.465Z,98417.66
2022-07-29T13:57:46.610Z,98413.56
2022-07-29T14:00:14.823Z,98401.66
2022-07-29T14:02:41.790Z,98403.59
2022-07-29T14:05:10.911Z,98411.09
2022-07-29T14:07:42.315Z,98412.31
2022-07-29T14:10:09.620Z,98409.78
2022-07-29T14:12:36.633Z,98416.09
2022-07-29T14:15:04.106Z,98409.38
2022-07-29T14:17:31.068Z,98405.72
2022-07-29T14:19:57.958Z,98402.47
2022-07-29T14:22:26.363Z,98394.50
2022-07-29T14:24:53.648Z,98405.31
2022-07-29T14:27:20.599Z,98400.44
2022-07-29T14:30:05.662Z,98398.88
2022-07-29T14:32:32.600Z,98401.66
2022-07-29T14:34:59.431Z,98402.81
2022-07-29T14:37:27.232Z,98401.22
2022-07-29T14:39:55.563Z,98402.94
2022-07-29T14:42:22.412Z,98400.19
2022-07-29T14:44:50.367Z,98397.19
2022-07-29T14:47:17.236Z,98399.16
2022-07-29T14:49:44.084Z,98399.13
2022-07-29T14:52:11.003Z,98400.97
2022-07-29T14:54:37.854Z,98403.25
2022-07-29T14:57:04.759Z,98390.47
2022-07-29T14:59:31.631Z,98392.75
2022-07-29T15:01:58.777Z,98396.44
2022-07-29T15:04:25.968Z,98392.13
2022-07-29T15:06:53.025Z,98393.56
2022-07-29T15:09:19.990Z,98387.31
2022-07-29T15:11:46.858Z,98385.50
2022-07-29T15:14:13.916Z,98384.72
2022-07-29T15:16:43.796Z,98380.28
2022-07-29T15:19:14.256Z,98373.69
2022-07-29T15:21:48.089Z,98373.41
2022-07-29T15:24:17.416Z,98377.03
2022-07-29T15:26:44.942Z,98375.38
2022-07-29T15:29:11.865Z,98368.31
2022-07-29T15:31:39.766Z,98367.12
2022-07-29T15:34:07.509Z,98367.75
2022-07-29T15:36:52.331Z,98359.38
2022-07-29T15:39:21.253Z,98362.19
2022-07-29T15:41:48.287Z,98368.59
2022-07-29T15:44:18.683Z,98363.75
2022-07-29T15:47:04.162Z,98360.34
2022-07-29T15:49:47.946Z,98367.34
2022-07-29T15:52:25.002Z,98357.34
2022-07-29T15:54:55.000Z,98357.19
2022-07-29T15:57:22.289Z,98360.84
2022-07-29T15:59:49.230Z,98350.59
2022-07-29T16:02:16.213Z,98349.97
2022-07-29T16:04:43.135Z,98346.22
2022-07-29T16:07:09.956Z,98346.37
2022-07-29T16:09:36.890Z,98348.38
2022-07-29T16:12:13.673Z,98343.66
2022-07-29T16:14:42.276Z,98339.44
2022-07-29T16:17:09.236Z,98334.03
2022-07-29T16:19:41.115Z,98332.84
2022-07-29T16:22:07.981Z,98336.22
2022-07-29T16:24:34.881Z,98333.19
2022-07-29T16:27:02.092Z,98330.03
2022-07-29T16:29:29.372Z,98328.84
2022-07-29T16:31:56.470Z,98326.22
2022-07-29T16:34:23.381Z,98327.38
2022-07-29T16:36:50.234Z,98329.47
2022-07-29T16:39:17.125Z,98326.41
2022-07-29T16:41:44.057Z,98316.75
2022-07-29T16:44:10.889Z,98313.34
2022-07-29T16:46:39.043Z,98311.13
2022-07-29T16:49:08.528Z,98310.38
2022-07-29T16:51:35.440Z,98310.44
2022-07-29T16:54:02.842Z,98320.03
2022-07-29T16:56:29.743Z,98321.25
2022-07-29T16:58:58.172Z,98312.38
2022-07-29T17:01:25.132Z,98313.22
2022-07-29T17:04:07.309Z,98309.00
2022-07-29T17:06:39.183Z,98315.34
2022-07-29T17:09:07.454Z,98302.84
2022-07-29T17:11:53.482Z,98310.66
2022-07-29T17:14:29.491Z,98316.34
2022-07-29T17:17:00.973Z,98310.97
2022-07-29T17:19:35.604Z,98317.63
2022-07-29T17:22:18.790Z,98310.72
2022-07-29T17:24:47.458Z,98309.44
2022-07-29T17:27:14.930Z,98310.34
2022-07-29T17:29:41.879Z,98306.81
2022-07-29T17:32:09.854Z,98306.19
2022-07-29T17:34:41.421Z,98309.41
2022-07-29T17:37:10.730Z,98302.81
2022-07-29T17:39:40.904Z,98307.03
2022-07-29T17:42:09.479Z,98302.66
2022-07-29T17:44:36.601Z,98302.06
2022-07-29T17:47:04.618Z,98310.25
2022-07-29T17:49:31.622Z,98318.47
2022-07-29T17:52:00.897Z,98316.72
2022-07-29T17:54:28.461Z,98320.94
2022-07-29T17:56:55.590Z,98325.16
2022-07-29T17:59:22.608Z,98329.16
2022-07-29T18:01:49.525Z,98330.00
2022-07-29T18:04:20.286Z,98330.53
2022-07-29T18:06:47.241Z,98339.13
2022-07-29T18:09:14.234Z,98334.66
2022-07-29T18:11:41.186Z,98338.06
2022-07-29T18:14:11.397Z,98333.88
2022-07-29T18:16:38.629Z,98345.59
2022-07-29T18:19:05.639Z,98342.38
2022-07-29T18:21:43.747Z,98339.03
2022-07-29T18:24:19.478Z,98336.53
2022-07-29T18:26:46.322Z,98342.31
2022-07-29T18:29:13.145Z,98343.16
2022-07-29T18:31:41.314Z,98341.44
2022-07-29T18:34:08.296Z,98355.88
2022-07-29T18:36:35.203Z,98347.69
2022-07-29T18:39:02.107Z,98350.97
2022-07-29T18:41:29.280Z,98353.16
2022-07-29T18:43:56.182Z,98347.06
2022-07-29T18:46:23.247Z,98350.03
2022-07-29T18:48:52.543Z,98347.72
2022-07-29T18:51:19.537Z,98351.50
2022-07-29T18:53:46.438Z,98351.38
2022-07-29T18:56:13.401Z,98349.19
2022-07-29T18:58:40.296Z,98354.94
2022-07-29T19:01:07.808Z,98359.28
2022-07-29T19:03:35.070Z,98366.06
2022-07-29T19:06:02.020Z,98356.94
2022-07-29T19:08:28.900Z,98362.94
2022-07-29T19:10:55.954Z,98362.47
2022-07-29T19:13:23.091Z,98370.78
2022-07-29T19:15:50.095Z,98368.38
2022-07-29T19:18:16.993Z,98371.03
2022-07-29T19:20:43.813Z,98381.12
2022-07-29T19:23:10.784Z,98383.03
2022-07-29T19:25:53.236Z,98389.03
2022-07-29T19:28:21.660Z,98388.66
2022-07-29T19:30:49.185Z,98387.97
2022-07-29T19:33:17.778Z,98403.09
2022-07-29T19:35:45.980Z,98403.13
2022-07-29T19:38:13.918Z,98402.41
2022-07-29T19:40:40.757Z,98400.94
2022-07-29T19:43:51.059Z,98409.44
2022-07-29T19:45:54.926Z,98413.34
2022-07-29T19:48:21.830Z,98424.59
2022-07-29T19:50:48.753Z,98423.84
2022-07-29T19:53:15.629Z,98417.25
2022-07-29T19:55:42.587Z,98422.13
2022-07-29T19:58:09.480Z,98420.22
2022-07-29T20:00:36.484Z,98430.84
2022-07-29T20:03:07.068Z,98421.28
2022-07-29T20:05:34.160Z,98426.66
2022-07-29T20:08:01.109Z,98424.50
2022-07-29T20:10:28.519Z,98429.41
2022-07-29T20:12:55.507Z,98426.62
2022-07-29T20:15:22.639Z,98432.66
2022-07-29T20:17:51.859Z,98431.16
2022-07-29T20:20:23.243Z,98430.31
2022-07-29T20:22:50.113Z,98433.75
2022-07-29T20:25:16.959Z,98426.44
2022-07-29T20:27:43.858Z,98424.97
2022-07-29T20:30:13.993Z,98425.31
2022-07-29T20:32:41.546Z,98428.06
2022-07-29T20:35:10.075Z,98423.41
2022-07-29T20:37:51.421Z,98423.75
2022-07-29T20:40:23.485Z,98427.94
2022-07-29T20:42:50.345Z,98432.59
2022-07-29T20:45:17.259Z,98424.97
2022-07-29T20:47:44.103Z,98427.88
2022-07-29T20:50:11.109Z,98425.25
2022-07-29T20:52:40.638Z,98427.31
2022-07-29T20:55:09.161Z,98424.72
2022-07-29T20:57:39.319Z,98429.94
2022-07-29T21:00:08.058Z,98426.97
2022-07-29T21:02:35.159Z,98427.62
2022-07-29T21:05:02.247Z,98432.03
2022-07-29T21:07:29.106Z,98437.75
2022-07-29T21:09:55.965Z,98427.88
2022-07-29T21:12:22.909Z,98431.16
2022-07-29T21:14:50.000Z,98430.84
2022-07-29T21:17:21.223Z,98426.75
2022-07-29T21:19:52.723Z,98419.59
2022-07-29T21:22:22.096Z,98426.41
2022-07-29T21:24:49.694Z,98417.16
2022-07-29T21:27:35.276Z,98422.53
2022-07-29T21:30:07.100Z,98417.84
2022-07-29T21:32:34.030Z,98416.50
2022-07-29T21:35:00.933Z,98410.50
2022-07-29T21:37:28.164Z,98410.56
2022-07-29T21:39:55.187Z,98407.91
2022-07-29T21:42:22.091Z,98409.69
2022-07-29T21:44:49.057Z,98398.28
2022-07-29T21:47:15.981Z,98400.91
2022-07-29T21:49:42.886Z,98398.69
2022-07-29T21:52:09.779Z,98393.50
2022-07-29T21:54:38.351Z,98394.63
2022-07-29T21:57:05.664Z,98387.97
2022-07-29T21:59:32.742Z,98389.78
2022-07-29T22:02:01.166Z,98394.81
2022-07-29T22:04:29.031Z,98399.22
2022-07-29T22:06:56.519Z,98414.47
2022-07-29T22:09:24.475Z,98462.41
2022-07-29T22:11:51.687Z,98449.25
2022-07-29T22:14:18.713Z,98438.00
2022-07-29T22:16:46.635Z,98454.31
2022-07-29T22:19:14.436Z,98454.69
2022-07-29T22:21:42.176Z,98448.72
2022-07-29T22:24:10.403Z,98443.06
2022-07-29T22:26:38.426Z,98442.78
2022-07-29T22:29:05.909Z,98437.72
2022-07-29T22:31:32.898Z,98449.94
2022-07-29T22:33:59.875Z,98441.56
2022-07-29T22:36:27.024Z,98436.56
2022-07-29T22:38:53.916Z,98429.28
2022-07-29T22:41:20.884Z,98431.78
2022-07-29T22:43:47.747Z,98435.22
2022-07-29T22:46:14.734Z,98415.63
2022-07-29T22:48:41.770Z,98416.59
2022-07-29T22:51:08.807Z,98400.78
2022-07-29T22:53:36.963Z,98388.00
2022-07-29T22:56:04.043Z,98381.19
2022-07-29T22:58:30.875Z,98358.25
2022-07-29T23:00:58.047Z,98341.22
2022-07-29T23:03:24.982Z,98338.66
2022-07-29T23:05:52.075Z,98323.16
2022-07-29T23:08:20.046Z,98319.31
2022-07-29T23:10:47.443Z,98311.81
2022-07-29T23:13:15.255Z,98305.56
2022-07-29T23:15:42.222Z,98303.59
2022-07-29T23:18:09.622Z,98301.19
2022-07-29T23:20:36.747Z,98312.72
2022-07-29T23:23:03.670Z,98307.75
2022-07-29T23:25:30.749Z,98310.84
2022-07-29T23:27:57.672Z,98309.69
2022-07-29T23:30:24.701Z,98307.56
2022-07-29T23:32:51.807Z,98303.84
2022-07-29T23:35:18.757Z,98301.25
2022-07-29T23:37:45.952Z,98306.84
2022-07-29T23:40:14.738Z,98306.59
2022-07-29T23:42:42.774Z,98306.59
2022-07-29T23:45:11.348Z,98312.72
2022-07-29T23:47:38.272Z,98308.72
2022-07-29T23:50:12.031Z,98311.78
2022-07-29T23:52:42.768Z,98307.44
2022-07-29T23:55:36.983Z,98313.06
2022-07-29T23:57:57.941Z,98312.69
